sensor_id;sensor_type;location;lat;lon;timestamp;temperature;humidity
21682;DHT22;11002;48.256;10.084;2022-10-16T00:00:46;17.90;43.30
21682;DHT22;11002;48.256;10.084;2022-10-16T00:03:14;17.80;43.10
21682;DHT22;11002;48.256;10.084;2022-10-16T00:05:43;17.90;43.20
21682;DHT22;11002;48.256;10.084;2022-10-16T00:08:11;17.80;43.20
21682;DHT22;11002;48.256;10.084;2022-10-16T00:10:39;17.80;43.20
21682;DHT22;11002;48.256;10.084;2022-10-16T00:13:07;17.80;43.20
21682;DHT22;11002;48.256;10.084;2022-10-16T00:15:36;17.90;43.30
21682;DHT22;11002;48.256;10.084;2022-10-16T00:18:05;17.80;43.20
21682;DHT22;11002;48.256;10.084;2022-10-16T00:20:34;17.80;43.20
21682;DHT22;11002;48.256;10.084;2022-10-16T00:23:21;17.80;43.20
21682;DHT22;11002;48.256;10.084;2022-10-16T00:25:55;17.80;43.10
21682;DHT22;11002;48.256;10.084;2022-10-16T00:28:24;17.80;43.10
21682;DHT22;11002;48.256;10.084;2022-10-16T00:30:53;17.80;43.10
21682;DHT22;11002;48.256;10.084;2022-10-16T00:33:20;17.80;43.10
21682;DHT22;11002;48.256;10.084;2022-10-16T00:35:48;17.80;43.10
21682;DHT22;11002;48.256;10.084;2022-10-16T00:38:16;17.80;43.10
21682;DHT22;11002;48.256;10.084;2022-10-16T00:40:43;17.80;43.20
21682;DHT22;11002;48.256;10.084;2022-10-16T00:45:59;17.80;43.10
21682;DHT22;11002;48.256;10.084;2022-10-16T00:48:27;17.80;43.20
21682;DHT22;11002;48.256;10.084;2022-10-16T00:50:54;17.80;43.20
21682;DHT22;11002;48.256;10.084;2022-10-16T00:53:23;17.80;43.20
21682;DHT22;11002;48.256;10.084;2022-10-16T00:55:52;17.80;43.10
21682;DHT22;11002;48.256;10.084;2022-10-16T00:58:20;17.80;43.20
21682;DHT22;11002;48.256;10.084;2022-10-16T01:00:48;17.80;43.10
21682;DHT22;11002;48.256;10.084;2022-10-16T01:03:26;17.80;43.20
21682;DHT22;11002;48.256;10.084;2022-10-16T01:06:01;17.80;43.20
21682;DHT22;11002;48.256;10.084;2022-10-16T01:08:39;17.80;43.10
21682;DHT22;11002;48.256;10.084;2022-10-16T01:11:17;17.80;43.20
21682;DHT22;11002;48.256;10.084;2022-10-16T01:13:50;17.80;43.20
21682;DHT22;11002;48.256;10.084;2022-10-16T01:16:24;17.80;43.10
21682;DHT22;11002;48.256;10.084;2022-10-16T01:19:00;17.80;43.10
21682;DHT22;11002;48.256;10.084;2022-10-16T01:21:33;17.80;43.10
21682;DHT22;11002;48.256;10.084;2022-10-16T01:24:06;17.80;43.10
21682;DHT22;11002;48.256;10.084;2022-10-16T01:29:32;17.90;43.30
21682;DHT22;11002;48.256;10.084;2022-10-16T01:32:08;17.80;43.20
21682;DHT22;11002;48.256;10.084;2022-10-16T01:34:44;17.80;43.20
21682;DHT22;11002;48.256;10.084;2022-10-16T01:37:18;17.80;43.10
21682;DHT22;11002;48.256;10.084;2022-10-16T01:39:49;17.80;43.10
21682;DHT22;11002;48.256;10.084;2022-10-16T01:42:20;17.80;43.10
21682;DHT22;11002;48.256;10.084;2022-10-16T01:44:51;17.80;43.20
21682;DHT22;11002;48.256;10.084;2022-10-16T01:47:22;17.80;43.20
21682;DHT22;11002;48.256;10.084;2022-10-16T01:49:51;17.80;43.20
21682;DHT22;11002;48.256;10.084;2022-10-16T01:52:22;17.80;43.20
21682;DHT22;11002;48.256;10.084;2022-10-16T01:54:52;17.80;43.20
21682;DHT22;11002;48.256;10.084;2022-10-16T01:57:21;17.80;43.20
21682;DHT22;11002;48.256;10.084;2022-10-16T01:59:56;17.90;43.30
21682;DHT22;11002;48.256;10.084;2022-10-16T02:02:27;17.80;43.20
21682;DHT22;11002;48.256;10.084;2022-10-16T02:04:58;17.80;43.20
21682;DHT22;11002;48.256;10.084;2022-10-16T02:07:28;17.80;43.20
21682;DHT22;11002;48.256;10.084;2022-10-16T02:09:56;17.80;43.20
21682;DHT22;11002;48.256;10.084;2022-10-16T02:12:26;17.80;43.30
21682;DHT22;11002;48.256;10.084;2022-10-16T02:14:55;17.80;43.30
21682;DHT22;11002;48.256;10.084;2022-10-16T02:17:23;17.80;43.30
21682;DHT22;11002;48.256;10.084;2022-10-16T02:19:54;17.80;43.30
21682;DHT22;11002;48.256;10.084;2022-10-16T02:22:25;17.80;43.20
21682;DHT22;11002;48.256;10.084;2022-10-16T02:24:57;17.80;43.20
21682;DHT22;11002;48.256;10.084;2022-10-16T02:27:29;17.80;43.20
21682;DHT22;11002;48.256;10.084;2022-10-16T02:30:05;17.80;43.20
21682;DHT22;11002;48.256;10.084;2022-10-16T02:32:36;17.80;43.20
21682;DHT22;11002;48.256;10.084;2022-10-16T02:35:06;17.80;43.10
21682;DHT22;11002;48.256;10.084;2022-10-16T02:37:35;17.80;43.90
21682;DHT22;11002;48.256;10.084;2022-10-16T02:40:03;17.80;43.20
21682;DHT22;11002;48.256;10.084;2022-10-16T02:42:34;17.80;43.30
21682;DHT22;11002;48.256;10.084;2022-10-16T02:45:04;17.80;43.20
21682;DHT22;11002;48.256;10.084;2022-10-16T02:47:31;17.80;43.20
21682;DHT22;11002;48.256;10.084;2022-10-16T02:49:59;17.80;43.20
21682;DHT22;11002;48.256;10.084;2022-10-16T02:52:26;17.80;43.90
21682;DHT22;11002;48.256;10.084;2022-10-16T02:54:54;17.80;43.20
21682;DHT22;11002;48.256;10.084;2022-10-16T02:57:21;17.80;43.20
21682;DHT22;11002;48.256;10.084;2022-10-16T02:59:48;17.80;43.20
21682;DHT22;11002;48.256;10.084;2022-10-16T03:02:17;17.80;43.20
21682;DHT22;11002;48.256;10.084;2022-10-16T03:04:45;17.80;43.20
21682;DHT22;11002;48.256;10.084;2022-10-16T03:07:12;17.80;43.20
21682;DHT22;11002;48.256;10.084;2022-10-16T03:09:39;17.80;43.10
21682;DHT22;11002;48.256;10.084;2022-10-16T03:12:07;17.80;43.20
21682;DHT22;11002;48.256;10.084;2022-10-16T03:14:34;17.80;43.20
21682;DHT22;11002;48.256;10.084;2022-10-16T03:17:01;17.80;43.20
21682;DHT22;11002;48.256;10.084;2022-10-16T03:19:30;17.80;43.20
21682;DHT22;11002;48.256;10.084;2022-10-16T03:21:57;17.80;43.30
21682;DHT22;11002;48.256;10.084;2022-10-16T03:24:25;17.80;43.20
21682;DHT22;11002;48.256;10.084;2022-10-16T03:26:52;17.80;43.30
21682;DHT22;11002;48.256;10.084;2022-10-16T03:29:19;17.80;43.20
21682;DHT22;11002;48.256;10.084;2022-10-16T03:31:47;17.80;43.30
21682;DHT22;11002;48.256;10.084;2022-10-16T03:34:15;17.80;43.30
21682;DHT22;11002;48.256;10.084;2022-10-16T03:36:44;17.80;43.20
21682;DHT22;11002;48.256;10.084;2022-10-16T03:39:11;17.80;43.20
21682;DHT22;11002;48.256;10.084;2022-10-16T03:41:38;17.80;43.20
21682;DHT22;11002;48.256;10.084;2022-10-16T03:44:06;17.80;43.20
21682;DHT22;11002;48.256;10.084;2022-10-16T03:46:33;17.80;43.20
21682;DHT22;11002;48.256;10.084;2022-10-16T03:49:01;17.80;43.20
21682;DHT22;11002;48.256;10.084;2022-10-16T03:51:28;17.80;43.20
21682;DHT22;11002;48.256;10.084;2022-10-16T03:53:57;17.80;43.30
21682;DHT22;11002;48.256;10.084;2022-10-16T03:56:24;17.80;43.20
21682;DHT22;11002;48.256;10.084;2022-10-16T03:58:51;17.80;43.20
21682;DHT22;11002;48.256;10.084;2022-10-16T04:01:18;17.80;43.20
21682;DHT22;11002;48.256;10.084;2022-10-16T04:03:46;17.80;43.20
21682;DHT22;11002;48.256;10.084;2022-10-16T04:06:13;17.80;43.30
21682;DHT22;11002;48.256;10.084;2022-10-16T04:08:42;17.80;43.30
21682;DHT22;11002;48.256;10.084;2022-10-16T04:11:11;17.80;43.20
21682;DHT22;11002;48.256;10.084;2022-10-16T04:13:38;17.80;43.30
21682;DHT22;11002;48.256;10.084;2022-10-16T04:16:06;17.80;43.20
21682;DHT22;11002;48.256;10.084;2022-10-16T04:18:33;17.80;43.20
21682;DHT22;11002;48.256;10.084;2022-10-16T04:21:03;17.80;43.30
21682;DHT22;11002;48.256;10.084;2022-10-16T04:23:31;17.80;43.20
21682;DHT22;11002;48.256;10.084;2022-10-16T04:25:58;17.80;43.20
21682;DHT22;11002;48.256;10.084;2022-10-16T04:28:28;17.80;43.20
21682;DHT22;11002;48.256;10.084;2022-10-16T04:30:55;17.80;43.30
21682;DHT22;11002;48.256;10.084;2022-10-16T04:33:22;17.80;43.90
21682;DHT22;11002;48.256;10.084;2022-10-16T04:35:56;17.80;43.30
21682;DHT22;11002;48.256;10.084;2022-10-16T04:38:23;17.80;43.90
21682;DHT22;11002;48.256;10.084;2022-10-16T04:40:51;17.80;43.30
21682;DHT22;11002;48.256;10.084;2022-10-16T04:43:18;17.80;43.30
21682;DHT22;11002;48.256;10.084;2022-10-16T04:45:47;17.80;43.30
21682;DHT22;11002;48.256;10.084;2022-10-16T04:48:16;17.80;43.20
21682;DHT22;11002;48.256;10.084;2022-10-16T04:50:43;17.80;43.20
21682;DHT22;11002;48.256;10.084;2022-10-16T04:53:11;17.80;43.20
21682;DHT22;11002;48.256;10.084;2022-10-16T04:55:38;17.80;43.20
21682;DHT22;11002;48.256;10.084;2022-10-16T04:58:06;17.80;43.20
21682;DHT22;11002;48.256;10.084;2022-10-16T05:00:33;17.80;43.20
21682;DHT22;11002;48.256;10.084;2022-10-16T05:03:02;17.80;43.20
21682;DHT22;11002;48.256;10.084;2022-10-16T05:05:33;17.80;43.20
21682;DHT22;11002;48.256;10.084;2022-10-16T05:08:00;17.80;43.30
21682;DHT22;11002;48.256;10.084;2022-10-16T05:10:28;17.80;43.20
21682;DHT22;11002;48.256;10.084;2022-10-16T05:12:55;17.80;43.20
21682;DHT22;11002;48.256;10.084;2022-10-16T05:15:22;17.80;43.20
21682;DHT22;11002;48.256;10.084;2022-10-16T05:17:53;17.80;43.20
21682;DHT22;11002;48.256;10.084;2022-10-16T05:20:22;17.80;43.20
21682;DHT22;11002;48.256;10.084;2022-10-16T05:22:49;17.80;43.20
21682;DHT22;11002;48.256;10.084;2022-10-16T05:25:17;17.80;43.20
21682;DHT22;11002;48.256;10.084;2022-10-16T05:27:47;17.80;43.30
21682;DHT22;11002;48.256;10.084;2022-10-16T05:30:15;17.80;43.20
21682;DHT22;11002;48.256;10.084;2022-10-16T05:32:46;17.80;43.20
21682;DHT22;11002;48.256;10.084;2022-10-16T05:35:15;17.80;43.10
21682;DHT22;11002;48.256;10.084;2022-10-16T05:37:44;17.80;43.20
21682;DHT22;11002;48.256;10.084;2022-10-16T05:40:12;17.80;43.20
21682;DHT22;11002;48.256;10.084;2022-10-16T05:42:40;17.90;43.30
21682;DHT22;11002;48.256;10.084;2022-10-16T05:45:10;17.80;43.20
21682;DHT22;11002;48.256;10.084;2022-10-16T05:47:37;17.80;43.20
21682;DHT22;11002;48.256;10.084;2022-10-16T05:50:05;17.80;43.20
21682;DHT22;11002;48.256;10.084;2022-10-16T05:52:33;17.80;43.10
21682;DHT22;11002;48.256;10.084;2022-10-16T05:55:01;17.80;43.20
21682;DHT22;11002;48.256;10.084;2022-10-16T05:57:29;17.80;43.20
21682;DHT22;11002;48.256;10.084;2022-10-16T05:59:57;17.80;43.20
21682;DHT22;11002;48.256;10.084;2022-10-16T06:02:24;17.80;43.30
21682;DHT22;11002;48.256;10.084;2022-10-16T06:04:52;17.80;43.20
21682;DHT22;11002;48.256;10.084;2022-10-16T06:07:20;17.80;43.20
21682;DHT22;11002;48.256;10.084;2022-10-16T06:09:48;17.80;43.20
21682;DHT22;11002;48.256;10.084;2022-10-16T06:12:18;17.80;43.20
21682;DHT22;11002;48.256;10.084;2022-10-16T06:14:46;17.80;43.20
21682;DHT22;11002;48.256;10.084;2022-10-16T06:17:14;17.80;43.20
21682;DHT22;11002;48.256;10.084;2022-10-16T06:19:42;17.80;43.20
21682;DHT22;11002;48.256;10.084;2022-10-16T06:22:09;17.80;43.20
21682;DHT22;11002;48.256;10.084;2022-10-16T06:24:37;17.80;43.20
21682;DHT22;11002;48.256;10.084;2022-10-16T06:27:04;17.80;43.20
21682;DHT22;11002;48.256;10.084;2022-10-16T06:29:33;17.80;43.20
21682;DHT22;11002;48.256;10.084;2022-10-16T06:32:00;17.80;43.20
21682;DHT22;11002;48.256;10.084;2022-10-16T06:34:27;17.80;43.20
21682;DHT22;11002;48.256;10.084;2022-10-16T06:36:55;17.80;43.20
21682;DHT22;11002;48.256;10.084;2022-10-16T06:39:22;17.80;43.20
21682;DHT22;11002;48.256;10.084;2022-10-16T06:41:49;17.80;43.20
21682;DHT22;11002;48.256;10.084;2022-10-16T06:44:17;17.80;43.20
21682;DHT22;11002;48.256;10.084;2022-10-16T06:46:45;17.80;43.10
21682;DHT22;11002;48.256;10.084;2022-10-16T06:49:13;17.80;43.20
21682;DHT22;11002;48.256;10.084;2022-10-16T06:51:47;17.80;43.20
21682;DHT22;11002;48.256;10.084;2022-10-16T06:54:15;17.80;43.20
21682;DHT22;11002;48.256;10.084;2022-10-16T06:56:43;17.80;43.20
21682;DHT22;11002;48.256;10.084;2022-10-16T06:59:11;17.80;43.20
21682;DHT22;11002;48.256;10.084;2022-10-16T07:01:39;17.80;43.20
21682;DHT22;11002;48.256;10.084;2022-10-16T07:04:07;17.80;43.20
21682;DHT22;11002;48.256;10.084;2022-10-16T07:06:35;17.80;43.20
21682;DHT22;11002;48.256;10.084;2022-10-16T07:09:05;17.80;43.20
21682;DHT22;11002;48.256;10.084;2022-10-16T07:11:33;17.80;43.10
21682;DHT22;11002;48.256;10.084;2022-10-16T07:14:01;17.80;43.20
21682;DHT22;11002;48.256;10.084;2022-10-16T07:16:29;17.80;43.20
21682;DHT22;11002;48.256;10.084;2022-10-16T07:19:00;17.80;43.20
21682;DHT22;11002;48.256;10.084;2022-10-16T07:21:30;17.80;43.20
21682;DHT22;11002;48.256;10.084;2022-10-16T07:24:01;17.80;43.20
21682;DHT22;11002;48.256;10.084;2022-10-16T07:26:32;17.80;43.20
21682;DHT22;11002;48.256;10.084;2022-10-16T07:29:00;17.80;43.20
21682;DHT22;11002;48.256;10.084;2022-10-16T07:31:28;17.80;43.20
21682;DHT22;11002;48.256;10.084;2022-10-16T07:33:58;17.80;43.20
21682;DHT22;11002;48.256;10.084;2022-10-16T07:36:25;17.80;43.90
21682;DHT22;11002;48.256;10.084;2022-10-16T07:38:54;17.80;43.20
21682;DHT22;11002;48.256;10.084;2022-10-16T07:41:22;17.80;43.20
21682;DHT22;11002;48.256;10.084;2022-10-16T07:43:51;17.80;43.20
21682;DHT22;11002;48.256;10.084;2022-10-16T07:46:19;17.80;43.20
21682;DHT22;11002;48.256;10.084;2022-10-16T07:48:47;17.80;43.10
21682;DHT22;11002;48.256;10.084;2022-10-16T07:51:17;17.80;43.10
21682;DHT22;11002;48.256;10.084;2022-10-16T07:53:44;17.80;43.20
21682;DHT22;11002;48.256;10.084;2022-10-16T07:56:14;17.80;43.20
21682;DHT22;11002;48.256;10.084;2022-10-16T07:58:42;17.80;43.20
21682;DHT22;11002;48.256;10.084;2022-10-16T08:01:11;17.90;43.20
21682;DHT22;11002;48.256;10.084;2022-10-16T08:03:42;17.80;43.20
21682;DHT22;11002;48.256;10.084;2022-10-16T08:06:09;17.80;43.20
21682;DHT22;11002;48.256;10.084;2022-10-16T08:08:37;17.80;43.20
21682;DHT22;11002;48.256;10.084;2022-10-16T08:11:04;17.80;43.20
21682;DHT22;11002;48.256;10.084;2022-10-16T08:13:33;17.80;43.20
21682;DHT22;11002;48.256;10.084;2022-10-16T08:16:01;17.80;43.20
21682;DHT22;11002;48.256;10.084;2022-10-16T08:18:33;17.80;43.10
21682;DHT22;11002;48.256;10.084;2022-10-16T08:21:02;17.80;43.10
21682;DHT22;11002;48.256;10.084;2022-10-16T08:23:30;17.80;43.10
21682;DHT22;11002;48.256;10.084;2022-10-16T08:26:03;17.80;43.10
21682;DHT22;11002;48.256;10.084;2022-10-16T08:28:30;17.80;43.10
21682;DHT22;11002;48.256;10.084;2022-10-16T08:31:07;17.80;43.10
21682;DHT22;11002;48.256;10.084;2022-10-16T08:33:35;17.80;43.10
21682;DHT22;11002;48.256;10.084;2022-10-16T08:36:03;17.80;43.10
21682;DHT22;11002;48.256;10.084;2022-10-16T08:38:31;17.80;43.10
21682;DHT22;11002;48.256;10.084;2022-10-16T08:41:13;17.80;43.10
21682;DHT22;11002;48.256;10.084;2022-10-16T08:44:00;17.80;43.10
21682;DHT22;11002;48.256;10.084;2022-10-16T08:46:41;17.80;43.00
21682;DHT22;11002;48.256;10.084;2022-10-16T08:49:12;17.80;43.10
21682;DHT22;11002;48.256;10.084;2022-10-16T08:51:40;17.80;43.10
21682;DHT22;11002;48.256;10.084;2022-10-16T08:54:19;17.80;43.10
21682;DHT22;11002;48.256;10.084;2022-10-16T08:56:48;17.80;43.10
21682;DHT22;11002;48.256;10.084;2022-10-16T08:59:16;17.80;43.10
21682;DHT22;11002;48.256;10.084;2022-10-16T09:01:47;17.80;43.10
21682;DHT22;11002;48.256;10.084;2022-10-16T09:07:18;17.80;43.10
21682;DHT22;11002;48.256;10.084;2022-10-16T09:10:03;17.80;43.00
21682;DHT22;11002;48.256;10.084;2022-10-16T09:12:40;17.80;43.10
21682;DHT22;11002;48.256;10.084;2022-10-16T09:15:20;17.80;43.10
21682;DHT22;11002;48.256;10.084;2022-10-16T09:17:59;17.80;43.10
21682;DHT22;11002;48.256;10.084;2022-10-16T09:20:31;17.80;43.10
21682;DHT22;11002;48.256;10.084;2022-10-16T09:23:12;17.80;43.10
21682;DHT22;11002;48.256;10.084;2022-10-16T09:25:43;17.80;43.10
21682;DHT22;11002;48.256;10.084;2022-10-16T09:28:11;17.80;43.00
21682;DHT22;11002;48.256;10.084;2022-10-16T09:30:38;17.80;43.10
21682;DHT22;11002;48.256;10.084;2022-10-16T09:33:09;17.80;43.10
21682;DHT22;11002;48.256;10.084;2022-10-16T09:35:38;17.80;43.10
21682;DHT22;11002;48.256;10.084;2022-10-16T09:38:06;17.80;43.20
21682;DHT22;11002;48.256;10.084;2022-10-16T09:40:35;17.80;43.10
21682;DHT22;11002;48.256;10.084;2022-10-16T09:43:21;17.80;43.10
21682;DHT22;11002;48.256;10.084;2022-10-16T09:45:57;17.80;43.20
21682;DHT22;11002;48.256;10.084;2022-10-16T09:48:30;17.80;43.10
21682;DHT22;11002;48.256;10.084;2022-10-16T09:51:00;17.80;43.20
21682;DHT22;11002;48.256;10.084;2022-10-16T09:53:39;17.80;43.20
21682;DHT22;11002;48.256;10.084;2022-10-16T09:56:07;17.80;43.20
21682;DHT22;11002;48.256;10.084;2022-10-16T09:58:36;17.80;43.20
21682;DHT22;11002;48.256;10.084;2022-10-16T10:01:05;17.80;43.10
21682;DHT22;11002;48.256;10.084;2022-10-16T10:03:39;17.80;43.20
21682;DHT22;11002;48.256;10.084;2022-10-16T10:06:17;17.80;43.20
21682;DHT22;11002;48.256;10.084;2022-10-16T10:08:56;17.80;43.20
21682;DHT22;11002;48.256;10.084;2022-10-16T10:11:43;17.80;43.10
21682;DHT22;11002;48.256;10.084;2022-10-16T10:14:23;17.80;43.10
21682;DHT22;11002;48.256;10.084;2022-10-16T10:16:52;17.80;43.10
21682;DHT22;11002;48.256;10.084;2022-10-16T10:19:29;17.80;43.10
21682;DHT22;11002;48.256;10.084;2022-10-16T10:21:57;17.80;43.10
21682;DHT22;11002;48.256;10.084;2022-10-16T10:24:24;17.80;43.20
21682;DHT22;11002;48.256;10.084;2022-10-16T10:26:56;17.80;43.20
21682;DHT22;11002;48.256;10.084;2022-10-16T10:29:35;17.80;43.20
21682;DHT22;11002;48.256;10.084;2022-10-16T10:32:17;17.80;43.20
21682;DHT22;11002;48.256;10.084;2022-10-16T10:35:03;17.90;43.30
21682;DHT22;11002;48.256;10.084;2022-10-16T10:37:53;17.80;43.20
21682;DHT22;11002;48.256;10.084;2022-10-16T10:40:30;17.80;43.20
21682;DHT22;11002;48.256;10.084;2022-10-16T10:43:04;17.90;43.30
21682;DHT22;11002;48.256;10.084;2022-10-16T10:45:41;17.80;43.20
21682;DHT22;11002;48.256;10.084;2022-10-16T10:48:21;17.80;43.20
21682;DHT22;11002;48.256;10.084;2022-10-16T10:50:55;17.80;43.20
21682;DHT22;11002;48.256;10.084;2022-10-16T10:53:33;17.80;43.20
21682;DHT22;11002;48.256;10.084;2022-10-16T10:56:10;17.80;43.20
21682;DHT22;11002;48.256;10.084;2022-10-16T10:58:50;17.80;43.20
21682;DHT22;11002;48.256;10.084;2022-10-16T11:01:22;17.80;43.30
21682;DHT22;11002;48.256;10.084;2022-10-16T11:04:20;17.80;44.00
21682;DHT22;11002;48.256;10.084;2022-10-16T11:06:56;17.80;43.30
21682;DHT22;11002;48.256;10.084;2022-10-16T11:09:28;17.80;43.30
21682;DHT22;11002;48.256;10.084;2022-10-16T11:12:01;17.80;43.20
21682;DHT22;11002;48.256;10.084;2022-10-16T11:14:36;17.80;43.30
21682;DHT22;11002;48.256;10.084;2022-10-16T11:17:10;17.80;43.30
21682;DHT22;11002;48.256;10.084;2022-10-16T11:19:44;17.80;43.30
21682;DHT22;11002;48.256;10.084;2022-10-16T11:22:19;17.80;43.30
21682;DHT22;11002;48.256;10.084;2022-10-16T11:24:53;17.80;43.30
21682;DHT22;11002;48.256;10.084;2022-10-16T11:27:27;17.80;43.30
21682;DHT22;11002;48.256;10.084;2022-10-16T11:30:00;17.80;43.40
21682;DHT22;11002;48.256;10.084;2022-10-16T11:32:31;17.80;43.30
21682;DHT22;11002;48.256;10.084;2022-10-16T11:35:08;17.80;43.40
21682;DHT22;11002;48.256;10.084;2022-10-16T11:37:43;17.80;43.30
21682;DHT22;11002;48.256;10.084;2022-10-16T11:40:19;17.80;43.30
21682;DHT22;11002;48.256;10.084;2022-10-16T11:42:51;17.80;43.30
21682;DHT22;11002;48.256;10.084;2022-10-16T11:45:28;17.80;43.30
21682;DHT22;11002;48.256;10.084;2022-10-16T11:48:01;17.80;43.30
21682;DHT22;11002;48.256;10.084;2022-10-16T11:50:34;17.80;43.30
21682;DHT22;11002;48.256;10.084;2022-10-16T11:53:13;17.80;43.30
21682;DHT22;11002;48.256;10.084;2022-10-16T11:55:43;17.90;43.40
21682;DHT22;11002;48.256;10.084;2022-10-16T11:58:19;17.80;43.30
21682;DHT22;11002;48.256;10.084;2022-10-16T12:00:56;17.80;43.30
21682;DHT22;11002;48.256;10.084;2022-10-16T12:03:30;17.80;43.30
21682;DHT22;11002;48.256;10.084;2022-10-16T12:06:22;17.80;43.30
21682;DHT22;11002;48.256;10.084;2022-10-16T12:08:53;17.80;43.30
21682;DHT22;11002;48.256;10.084;2022-10-16T12:11:33;17.80;43.30
21682;DHT22;11002;48.256;10.084;2022-10-16T12:14:06;17.80;43.40
21682;DHT22;11002;48.256;10.084;2022-10-16T12:16:36;17.80;43.40
21682;DHT22;11002;48.256;10.084;2022-10-16T12:19:14;17.80;43.50
21682;DHT22;11002;48.256;10.084;2022-10-16T12:21:42;17.80;43.50
21682;DHT22;11002;48.256;10.084;2022-10-16T12:24:26;17.80;43.50
21682;DHT22;11002;48.256;10.084;2022-10-16T12:26:54;17.80;43.50
21682;DHT22;11002;48.256;10.084;2022-10-16T12:29:32;17.80;43.50
21682;DHT22;11002;48.256;10.084;2022-10-16T12:32:00;17.80;43.50
21682;DHT22;11002;48.256;10.084;2022-10-16T12:34:29;17.80;43.50
21682;DHT22;11002;48.256;10.084;2022-10-16T12:37:10;17.80;43.50
21682;DHT22;11002;48.256;10.084;2022-10-16T12:39:40;17.80;43.40
21682;DHT22;11002;48.256;10.084;2022-10-16T12:42:21;17.80;43.50
21682;DHT22;11002;48.256;10.084;2022-10-16T12:44:49;17.80;43.50
21682;DHT22;11002;48.256;10.084;2022-10-16T12:47:21;17.80;43.50
21682;DHT22;11002;48.256;10.084;2022-10-16T12:49:51;17.80;43.50
21682;DHT22;11002;48.256;10.084;2022-10-16T12:52:35;17.80;43.40
21682;DHT22;11002;48.256;10.084;2022-10-16T12:55:09;17.80;43.50
21682;DHT22;11002;48.256;10.084;2022-10-16T12:57:52;17.80;43.50
21682;DHT22;11002;48.256;10.084;2022-10-16T13:00:26;17.80;43.50
21682;DHT22;11002;48.256;10.084;2022-10-16T13:03:24;17.90;43.70
21682;DHT22;11002;48.256;10.084;2022-10-16T13:06:04;17.90;43.70
21682;DHT22;11002;48.256;10.084;2022-10-16T13:08:55;17.90;43.60
21682;DHT22;11002;48.256;10.084;2022-10-16T13:11:35;17.90;43.70
21682;DHT22;11002;48.256;10.084;2022-10-16T13:14:21;17.90;43.50
21682;DHT22;11002;48.256;10.084;2022-10-16T13:17:03;17.90;43.50
21682;DHT22;11002;48.256;10.084;2022-10-16T13:19:38;17.90;43.50
21682;DHT22;11002;48.256;10.084;2022-10-16T13:22:15;17.80;43.50
21682;DHT22;11002;48.256;10.084;2022-10-16T13:24:56;17.90;43.50
21682;DHT22;11002;48.256;10.084;2022-10-16T13:27:38;17.90;43.50
21682;DHT22;11002;48.256;10.084;2022-10-16T13:30:13;17.90;43.50
21682;DHT22;11002;48.256;10.084;2022-10-16T13:32:45;17.80;43.40
21682;DHT22;11002;48.256;10.084;2022-10-16T13:35:21;17.80;43.50
21682;DHT22;11002;48.256;10.084;2022-10-16T13:37:49;17.80;43.50
21682;DHT22;11002;48.256;10.084;2022-10-16T13:40:22;17.90;43.50
21682;DHT22;11002;48.256;10.084;2022-10-16T13:42:53;17.80;43.40
21682;DHT22;11002;48.256;10.084;2022-10-16T13:45:24;17.80;43.40
21682;DHT22;11002;48.256;10.084;2022-10-16T13:48:02;17.80;43.50
21682;DHT22;11002;48.256;10.084;2022-10-16T13:50:29;17.80;43.50
21682;DHT22;11002;48.256;10.084;2022-10-16T13:53:06;17.80;43.50
21682;DHT22;11002;48.256;10.084;2022-10-16T13:55:34;17.80;43.40
21682;DHT22;11002;48.256;10.084;2022-10-16T13:58:12;17.80;43.50
21682;DHT22;11002;48.256;10.084;2022-10-16T14:00:51;17.80;43.50
21682;DHT22;11002;48.256;10.084;2022-10-16T14:03:20;17.80;43.50
21682;DHT22;11002;48.256;10.084;2022-10-16T14:05:49;17.80;43.40
21682;DHT22;11002;48.256;10.084;2022-10-16T14:08:17;17.80;43.40
21682;DHT22;11002;48.256;10.084;2022-10-16T14:10:59;17.80;43.50
21682;DHT22;11002;48.256;10.084;2022-10-16T14:13:32;17.80;43.50
21682;DHT22;11002;48.256;10.084;2022-10-16T14:16:05;17.80;43.50
21682;DHT22;11002;48.256;10.084;2022-10-16T14:18:33;17.80;43.50
21682;DHT22;11002;48.256;10.084;2022-10-16T14:21:05;17.80;43.50
21682;DHT22;11002;48.256;10.084;2022-10-16T14:23:36;17.80;43.50
21682;DHT22;11002;48.256;10.084;2022-10-16T14:26:22;17.80;43.50
21682;DHT22;11002;48.256;10.084;2022-10-16T14:29:03;17.80;43.40
21682;DHT22;11002;48.256;10.084;2022-10-16T14:31:33;17.80;43.40
21682;DHT22;11002;48.256;10.084;2022-10-16T14:34:02;17.80;43.50
21682;DHT22;11002;48.256;10.084;2022-10-16T14:36:30;17.80;43.50
21682;DHT22;11002;48.256;10.084;2022-10-16T14:39:03;17.80;43.40
21682;DHT22;11002;48.256;10.084;2022-10-16T14:41:32;17.80;43.50
21682;DHT22;11002;48.256;10.084;2022-10-16T14:44:03;17.80;43.40
21682;DHT22;11002;48.256;10.084;2022-10-16T14:46:34;17.80;43.40
21682;DHT22;11002;48.256;10.084;2022-10-16T14:49:12;17.80;43.40
21682;DHT22;11002;48.256;10.084;2022-10-16T14:51:41;17.80;43.40
21682;DHT22;11002;48.256;10.084;2022-10-16T14:54:12;17.80;43.40
21682;DHT22;11002;48.256;10.084;2022-10-16T14:56:46;17.80;43.40
21682;DHT22;11002;48.256;10.084;2022-10-16T14:59:19;17.80;43.40
21682;DHT22;11002;48.256;10.084;2022-10-16T15:01:47;17.80;43.40
21682;DHT22;11002;48.256;10.084;2022-10-16T15:04:14;17.80;43.40
21682;DHT22;11002;48.256;10.084;2022-10-16T15:06:42;17.80;43.40
21682;DHT22;11002;48.256;10.084;2022-10-16T15:09:10;17.80;43.40
21682;DHT22;11002;48.256;10.084;2022-10-16T15:11:37;17.80;43.40
21682;DHT22;11002;48.256;10.084;2022-10-16T15:14:05;17.80;43.40
21682;DHT22;11002;48.256;10.084;2022-10-16T15:16:34;17.80;43.40
21682;DHT22;11002;48.256;10.084;2022-10-16T15:19:01;17.80;43.40
21682;DHT22;11002;48.256;10.084;2022-10-16T15:21:30;17.80;43.40
21682;DHT22;11002;48.256;10.084;2022-10-16T15:23:59;17.80;43.40
21682;DHT22;11002;48.256;10.084;2022-10-16T15:26:28;17.80;43.40
21682;DHT22;11002;48.256;10.084;2022-10-16T15:28:56;17.80;43.30
21682;DHT22;11002;48.256;10.084;2022-10-16T15:31:23;17.80;43.30
21682;DHT22;11002;48.256;10.084;2022-10-16T15:33:53;17.80;43.40
21682;DHT22;11002;48.256;10.084;2022-10-16T15:36:28;17.80;43.30
21682;DHT22;11002;48.256;10.084;2022-10-16T15:38:56;17.80;43.30
21682;DHT22;11002;48.256;10.084;2022-10-16T15:41:23;17.80;43.30
21682;DHT22;11002;48.256;10.084;2022-10-16T15:43:51;17.80;43.40
21682;DHT22;11002;48.256;10.084;2022-10-16T15:46:19;17.80;43.40
21682;DHT22;11002;48.256;10.084;2022-10-16T15:48:47;17.80;43.30